Time;durP1;ratioP1;P1;durP2;ratioP2;P2;SDS_P1;SDS_P2;PMS_P1;PMS_P2;Temp;Humidity;BMP_temperature;BMP_pressure;BME280_temperature;BME280_humidity;BME280_pressure;Samples;Min_cycle;Max_cycle;Signal;HPM_P1;HPM_P2
2022/11/04 00:49:46;;;;;;;7.60;3.03;;;;;;;;;;4894111;23;20049;-94
2022/11/04 00:52:14;;;;;;;5.85;2.75;;;;;;;;;;5004697;28;20076;-94
2022/11/04 00:54:42;;;;;;;6.55;3.20;;;;;;;;;;4970338;28;20038;-93
2022/11/04 00:57:34;;;;;;;8.13;2.85;;;;;;;;;;4991496;28;20033;-94
2022/11/04 01:00:07;;;;;;;6.95;3.25;;;;;;;;;;4986292;28;20127;-93
2022/11/04 01:02:34;;;;;;;7.15;2.78;;;;;;;;;;4986716;28;20068;-94
2022/11/04 01:05:03;;;;;;;9.27;3.20;;;;;;;;;;5007607;28;20038;-94
2022/11/04 01:07:30;;;;;;;8.07;2.92;;;;;;;;;;4989935;28;20041;-94
2022/11/04 01:10:03;;;;;;;4.28;2.45;;;;;;;;;;5010121;28;20030;-94
2022/11/04 01:12:36;;;;;;;7.07;3.10;;;;;;;;;;5007292;28;21030;-94
2022/11/04 01:15:05;;;;;;;7.55;3.15;;;;;;;;;;5003231;28;20037;-94
2022/11/04 01:17:32;;;;;;;7.40;3.05;;;;;;;;;;4991980;28;20045;-94
2022/11/04 01:20:26;;;;;;;5.90;2.85;;;;;;;;;;5005011;28;20515;-94
2022/11/04 01:23:00;;;;;;;9.55;3.13;;;;;;;;;;4990212;28;20120;-94
2022/11/04 01:25:40;;;;;;;6.20;3.17;;;;;;;;;;4987007;28;20042;-93
2022/11/04 01:28:19;;;;;;;8.75;3.47;;;;;;;;;;4990133;28;20065;-93
2022/11/04 01:31:20;;;;;;;10.48;3.03;;;;;;;;;;4987673;28;20038;-94
2022/11/04 01:33:50;;;;;;;6.05;2.97;;;;;;;;;;5009358;28;20125;-95
2022/11/04 01:36:17;;;;;;;5.88;3.03;;;;;;;;;;5010334;28;20046;-93
2022/11/04 01:38:44;;;;;;;5.55;3.00;;;;;;;;;;4992396;28;20128;-94
2022/11/04 01:41:18;;;;;;;6.00;2.65;;;;;;;;;;4992948;28;20050;-94
2022/11/04 01:44:41;;;;;;;6.85;2.90;;;;;;;;;;5006439;28;20091;-94
2022/11/04 01:47:17;;;;;;;7.38;3.30;;;;;;;;;;4968020;28;20034;-94
2022/11/04 01:49:51;;;;;;;6.35;2.83;;;;;;;;;;5009188;28;20038;-92
2022/11/04 01:52:30;;;;;;;7.60;2.97;;;;;;;;;;4986560;28;20044;-93
2022/11/04 01:55:50;;;;;;;7.45;3.10;;;;;;;;;;5006286;28;20148;-93
2022/11/04 01:58:22;;;;;;;5.82;3.00;;;;;;;;;;5002428;28;20038;-95
2022/11/04 02:00:50;;;;;;;9.98;3.15;;;;;;;;;;5007717;28;20129;-95
2022/11/04 02:03:35;;;;;;;8.15;3.13;;;;;;;;;;4970977;28;20492;-94
2022/11/04 02:06:04;;;;;;;6.15;2.72;;;;;;;;;;5008582;28;20046;-93
2022/11/04 02:08:56;;;;;;;8.73;3.00;;;;;;;;;;4965828;28;20039;-94
2022/11/04 02:14:35;;;;;;;9.07;3.22;;;;;;;;;;4989821;28;20134;-92
2022/11/04 02:17:41;;;;;;;8.50;3.05;;;;;;;;;;4989368;28;20133;-94
2022/11/04 02:20:27;;;;;;;7.00;2.95;;;;;;;;;;4896191;29;20180;-93
2022/11/04 02:23:52;;;;;;;5.63;2.95;;;;;;;;;;4914848;29;20042;-93
2022/11/04 02:26:39;;;;;;;7.45;3.17;;;;;;;;;;4927875;29;20406;-94
2022/11/04 02:29:26;;;;;;;7.57;3.10;;;;;;;;;;4909344;29;20048;-94
2022/11/04 02:32:24;;;;;;;6.93;3.17;;;;;;;;;;4912355;29;20051;-93
2022/11/04 02:35:14;;;;;;;7.97;3.60;;;;;;;;;;4927574;29;20235;-93
2022/11/04 02:38:09;;;;;;;8.35;3.47;;;;;;;;;;4912966;29;20063;-93
2022/11/04 02:40:56;;;;;;;8.15;3.25;;;;;;;;;;4927714;29;20044;-93
2022/11/04 02:43:38;;;;;;;8.32;3.50;;;;;;;;;;4927238;29;20417;-92
2022/11/04 02:46:21;;;;;;;7.13;3.22;;;;;;;;;;4911931;29;20485;-93
2022/11/04 02:49:04;;;;;;;10.02;3.33;;;;;;;;;;4926751;29;20044;-94
2022/11/04 02:51:43;;;;;;;8.98;3.95;;;;;;;;;;4911821;29;20067;-93
2022/11/04 02:54:24;;;;;;;7.70;3.80;;;;;;;;;;4927517;29;20158;-94
2022/11/04 02:56:57;;;;;;;9.85;3.70;;;;;;;;;;4944274;28;20054;-94
2022/11/04 02:59:43;;;;;;;10.75;3.50;;;;;;;;;;5000541;28;20062;-95
2022/11/04 03:02:39;;;;;;;13.82;4.15;;;;;;;;;;5006166;28;20034;-94
2022/11/04 03:05:36;;;;;;;10.23;3.63;;;;;;;;;;4982688;28;20046;-93
2022/11/04 03:08:09;;;;;;;15.00;3.90;;;;;;;;;;4974819;28;20080;-93
2022/11/04 03:10:43;;;;;;;10.32;3.70;;;;;;;;;;4989578;28;20712;-94
2022/11/04 03:13:37;;;;;;;7.13;3.63;;;;;;;;;;4971879;28;20121;-94
2022/11/04 03:16:10;;;;;;;6.50;3.10;;;;;;;;;;4975057;28;20046;-93
2022/11/04 03:19:08;;;;;;;9.52;4.22;;;;;;;;;;5006806;28;20041;-93
2022/11/04 03:22:09;;;;;;;7.10;3.45;;;;;;;;;;4992159;28;20120;-94
2022/11/04 03:24:44;;;;;;;8.30;3.95;;;;;;;;;;5006897;28;20054;-93
2022/11/04 03:27:40;;;;;;;8.73;3.35;;;;;;;;;;5006479;28;21825;-93
2022/11/04 03:30:14;;;;;;;8.40;3.38;;;;;;;;;;4986327;28;20045;-94
2022/11/04 03:33:29;;;;;;;9.18;3.30;;;;;;;;;;5007251;28;20065;-94
2022/11/04 03:36:22;;;;;;;9.60;3.65;;;;;;;;;;4988358;28;20084;-93
2022/11/04 03:38:54;;;;;;;9.82;3.80;;;;;;;;;;5005716;28;20041;-93
2022/11/04 03:41:34;;;;;;;6.47;3.88;;;;;;;;;;4987167;28;20073;-93
2022/11/04 03:44:00;;;;;;;6.03;2.90;;;;;;;;;;5006639;28;20041;-93
2022/11/04 03:46:34;;;;;;;6.95;3.58;;;;;;;;;;5005414;28;20133;-95
2022/11/04 03:49:08;;;;;;;7.90;3.70;;;;;;;;;;5006140;28;20587;-93
2022/11/04 03:51:36;;;;;;;7.43;3.25;;;;;;;;;;4988901;28;20041;-94
2022/11/04 03:54:06;;;;;;;9.52;3.40;;;;;;;;;;4988791;28;20442;-94
2022/11/04 03:56:53;;;;;;;6.45;3.47;;;;;;;;;;5005757;28;20583;-92
2022/11/04 03:59:33;;;;;;;7.43;3.70;;;;;;;;;;5007121;28;20038;-95
2022/11/04 04:02:16;;;;;;;6.85;3.60;;;;;;;;;;5006365;28;20041;-93
2022/11/04 04:05:08;;;;;;;7.22;3.42;;;;;;;;;;4989024;28;20042;-94
2022/11/04 04:08:07;;;;;;;8.32;3.60;;;;;;;;;;5004090;28;20038;-94
2022/11/04 04:11:03;;;;;;;8.93;3.70;;;;;;;;;;4990093;28;20100;-93
2022/11/04 04:14:02;;;;;;;8.30;4.22;;;;;;;;;;4999772;28;20112;-93
2022/11/04 04:16:42;;;;;;;8.38;3.63;;;;;;;;;;5002789;28;20053;-94
2022/11/04 04:19:17;;;;;;;7.50;3.45;;;;;;;;;;5005065;28;20111;-94
2022/11/04 04:21:51;;;;;;;10.60;4.25;;;;;;;;;;5006402;28;20515;-94
2022/11/04 04:27:35;;;;;;;8.00;3.90;;;;;;;;;;4998041;28;20480;-94
2022/11/04 04:30:12;;;;;;;11.68;4.43;;;;;;;;;;5004784;28;20092;-94
2022/11/04 04:32:53;;;;;;;8.05;4.00;;;;;;;;;;4987391;28;20057;-94
2022/11/04 04:35:42;;;;;;;7.60;3.60;;;;;;;;;;4995986;28;20050;-94
2022/11/04 04:47:18;;;;;;;8.77;4.70;;;;;;;;;;5005693;28;20049;-94
2022/11/04 04:50:18;;;;;;;10.63;4.30;;;;;;;;;;5003239;28;20256;-93
2022/11/04 04:52:48;;;;;;;7.95;4.05;;;;;;;;;;5000518;28;20492;-93
2022/11/04 04:55:20;;;;;;;7.07;4.10;;;;;;;;;;5005951;28;20044;-93
2022/11/04 04:57:48;;;;;;;8.23;4.13;;;;;;;;;;5005046;28;20034;-94
2022/11/04 05:00:19;;;;;;;6.13;3.50;;;;;;;;;;4972594;28;20488;-94
2022/11/04 05:02:47;;;;;;;6.95;3.97;;;;;;;;;;4987752;28;20034;-93
2022/11/04 05:05:15;;;;;;;7.05;3.80;;;;;;;;;;4970753;28;20093;-93
2022/11/04 05:07:48;;;;;;;7.05;3.38;;;;;;;;;;4985528;28;20569;-94
2022/11/04 05:10:40;;;;;;;7.05;3.53;;;;;;;;;;4973016;28;20033;-94
2022/11/04 05:13:32;;;;;;;10.43;3.30;;;;;;;;;;4996051;28;20038;-94
2022/11/04 05:16:30;;;;;;;5.75;2.78;;;;;;;;;;4986081;28;20046;-94
2022/11/04 05:19:02;;;;;;;5.22;2.80;;;;;;;;;;4972162;28;20477;-93
2022/11/04 05:21:30;;;;;;;5.22;3.03;;;;;;;;;;5006378;28;20034;-94
2022/11/04 05:23:59;;;;;;;4.28;2.70;;;;;;;;;;4989604;28;20038;-94
2022/11/04 05:26:29;;;;;;;4.28;2.72;;;;;;;;;;4998273;28;20049;-93
2022/11/04 05:28:56;;;;;;;5.28;2.60;;;;;;;;;;5005086;28;20068;-93
2022/11/04 05:31:29;;;;;;;4.38;2.40;;;;;;;;;;4987347;28;20041;-94
2022/11/04 05:33:58;;;;;;;4.90;2.33;;;;;;;;;;5005104;28;20042;-94
2022/11/04 05:37:14;;;;;;;6.68;2.40;;;;;;;;;;5005398;28;20095;-94
2022/11/04 05:39:42;;;;;;;6.18;2.00;;;;;;;;;;4988757;28;20052;-94
2022/11/04 05:42:10;;;;;;;4.00;1.95;;;;;;;;;;4968213;28;20037;-93
2022/11/04 05:44:38;;;;;;;5.63;2.42;;;;;;;;;;5005949;28;20685;-93
2022/11/04 05:47:32;;;;;;;6.07;1.98;;;;;;;;;;5011172;28;20045;-93
2022/11/04 05:50:05;;;;;;;3.85;1.70;;;;;;;;;;4985704;28;20046;-94
2022/11/04 05:52:33;;;;;;;3.55;2.00;;;;;;;;;;5006551;28;20132;-93
2022/11/04 05:55:09;;;;;;;4.47;1.95;;;;;;;;;;5005755;28;20069;-92
2022/11/04 05:57:39;;;;;;;3.85;1.48;;;;;;;;;;5009768;28;20123;-93
2022/11/04 06:00:11;;;;;;;4.15;2.08;;;;;;;;;;5003385;28;20665;-93
2022/11/04 06:02:38;;;;;;;2.97;1.70;;;;;;;;;;5009505;28;20038;-92
2022/11/04 06:05:10;;;;;;;3.75;2.05;;;;;;;;;;4992485;28;20121;-92
2022/11/04 06:07:38;;;;;;;4.03;2.05;;;;;;;;;;5007441;28;20137;-92
2022/11/04 06:10:10;;;;;;;4.13;1.80;;;;;;;;;;4986392;28;20037;-93
2022/11/04 06:12:38;;;;;;;6.03;2.00;;;;;;;;;;5005595;28;20133;-92
2022/11/04 06:15:07;;;;;;;3.80;2.05;;;;;;;;;;4990414;28;20044;-92
2022/11/04 06:17:35;;;;;;;4.47;2.33;;;;;;;;;;5008112;28;20061;-92
2022/11/04 06:20:04;;;;;;;3.45;2.00;;;;;;;;;;5009255;28;20605;-92
2022/11/04 06:22:31;;;;;;;4.63;2.30;;;;;;;;;;4986580;28;20087;-92
2022/11/04 06:24:58;;;;;;;4.45;2.42;;;;;;;;;;5006207;28;20121;-91
2022/11/04 06:27:50;;;;;;;3.63;2.30;;;;;;;;;;4995135;28;20034;-92
2022/11/04 06:30:18;;;;;;;4.28;2.30;;;;;;;;;;5010280;28;20088;-91
2022/11/04 06:33:10;;;;;;;4.88;2.25;;;;;;;;;;5011061;28;20116;-94
2022/11/04 06:36:05;;;;;;;6.53;2.50;;;;;;;;;;4978792;28;20061;-95
2022/11/04 06:38:37;;;;;;;4.18;2.30;;;;;;;;;;5007019;28;21296;-94
2022/11/04 06:41:11;;;;;;;3.88;2.10;;;;;;;;;;4990373;28;20049;-93
2022/11/04 06:43:38;;;;;;;6.70;2.88;;;;;;;;;;4991715;28;20038;-93
2022/11/04 06:46:35;;;;;;;6.25;2.72;;;;;;;;;;4993268;28;20113;-93
2022/11/04 06:49:52;;;;;;;4.10;2.20;;;;;;;;;;5007045;28;20037;-92
2022/11/04 06:52:44;;;;;;;5.35;2.67;;;;;;;;;;5005178;28;20038;-90
2022/11/04 06:55:12;;;;;;;5.38;2.47;;;;;;;;;;4990257;28;20038;-92
2022/11/04 06:57:40;;;;;;;5.45;2.88;;;;;;;;;;4988658;28;20049;-91
2022/11/04 07:00:13;;;;;;;9.82;3.00;;;;;;;;;;5006612;28;20042;-91
2022/11/04 07:02:40;;;;;;;6.22;3.28;;;;;;;;;;5002271;28;20077;-91
2022/11/04 07:05:13;;;;;;;5.47;3.10;;;;;;;;;;5007456;28;20120;-91
2022/11/04 07:07:40;;;;;;;4.03;2.53;;;;;;;;;;5003146;28;20114;-91
2022/11/04 07:10:08;;;;;;;5.55;2.80;;;;;;;;;;4989370;28;20042;-91
2022/11/04 07:12:40;;;;;;;6.82;3.10;;;;;;;;;;4991852;28;20045;-91
2022/11/04 07:15:09;;;;;;;5.55;2.85;;;;;;;;;;4989816;28;20119;-91
2022/11/04 07:17:43;;;;;;;6.35;3.03;;;;;;;;;;4991083;28;20592;-91
2022/11/04 07:20:12;;;;;;;5.43;2.90;;;;;;;;;;4993555;28;20037;-91
2022/11/04 07:22:39;;;;;;;5.68;2.83;;;;;;;;;;5008658;28;20060;-90
2022/11/04 07:25:13;;;;;;;5.20;2.95;;;;;;;;;;4987364;28;20048;-90
2022/11/04 07:27:46;;;;;;;5.18;3.13;;;;;;;;;;5009035;28;20050;-91
2022/11/04 07:30:14;;;;;;;6.43;3.30;;;;;;;;;;5006816;28;20038;-90
2022/11/04 07:32:42;;;;;;;9.73;3.42;;;;;;;;;;4980111;28;20628;-91
2022/11/04 07:35:14;;;;;;;8.35;3.22;;;;;;;;;;5006295;28;20042;-90
2022/11/04 07:37:42;;;;;;;6.28;3.35;;;;;;;;;;5008547;28;20045;-91
2022/11/04 07:40:11;;;;;;;8.40;3.78;;;;;;;;;;4989395;28;20463;-91
2022/11/04 07:42:38;;;;;;;6.68;3.45;;;;;;;;;;5007777;28;20041;-90
2022/11/04 07:45:09;;;;;;;6.65;3.08;;;;;;;;;;4992199;28;20034;-91
2022/11/04 07:47:36;;;;;;;7.63;3.33;;;;;;;;;;4999510;28;20041;-91
2022/11/04 07:50:28;;;;;;;7.10;3.40;;;;;;;;;;5002161;28;20052;-90
2022/11/04 07:52:58;;;;;;;5.47;3.30;;;;;;;;;;4982587;28;20034;-91
2022/11/04 07:55:30;;;;;;;7.32;3.22;;;;;;;;;;4985418;28;20046;-90
2022/11/04 07:57:58;;;;;;;7.20;3.30;;;;;;;;;;5005387;28;20037;-91
2022/11/04 08:00:36;;;;;;;5.22;3.08;;;;;;;;;;5002556;28;20031;-91
2022/11/04 08:03:04;;;;;;;6.82;3.40;;;;;;;;;;5007561;28;20507;-91
2022/11/04 08:05:32;;;;;;;11.90;4.30;;;;;;;;;;5006301;28;20137;-90
2022/11/04 08:08:00;;;;;;;6.80;3.75;;;;;;;;;;5007510;28;20073;-91
2022/11/04 08:10:33;;;;;;;8.32;3.50;;;;;;;;;;5006438;28;20034;-91
2022/11/04 08:13:06;;;;;;;6.97;3.50;;;;;;;;;;5008148;28;20033;-91
2022/11/04 08:15:35;;;;;;;7.00;3.88;;;;;;;;;;5010029;28;20069;-92
2022/11/04 08:18:02;;;;;;;7.25;4.13;;;;;;;;;;5007998;28;20073;-91
2022/11/04 08:20:30;;;;;;;7.88;3.85;;;;;;;;;;4993591;28;20037;-91
2022/11/04 08:22:58;;;;;;;9.07;4.40;;;;;;;;;;4992948;28;20060;-91
2022/11/04 08:25:55;;;;;;;7.97;4.43;;;;;;;;;;5010136;28;20084;-92
2022/11/04 08:28:29;;;;;;;7.88;3.97;;;;;;;;;;4982259;28;20038;-92
2022/11/04 08:31:13;;;;;;;7.40;3.65;;;;;;;;;;5011343;28;20106;-92
2022/11/04 08:34:07;;;;;;;7.20;3.83;;;;;;;;;;4992967;28;20041;-92
2022/11/04 08:36:41;;;;;;;8.00;4.30;;;;;;;;;;5010478;28;20073;-91
2022/11/04 08:39:35;;;;;;;6.63;4.18;;;;;;;;;;4991184;28;20038;-91
2022/11/04 08:42:11;;;;;;;6.43;3.80;;;;;;;;;;4983419;28;20603;-91
2022/11/04 08:44:47;;;;;;;8.45;4.13;;;;;;;;;;4973020;28;20046;-91
2022/11/04 08:47:17;;;;;;;7.03;3.88;;;;;;;;;;4990718;28;20037;-91
2022/11/04 08:49:47;;;;;;;6.75;3.88;;;;;;;;;;4971949;28;20956;-91
2022/11/04 08:52:17;;;;;;;7.45;3.95;;;;;;;;;;5006639;28;20136;-91
2022/11/04 08:54:48;;;;;;;6.03;3.35;;;;;;;;;;5005079;28;20025;-91
2022/11/04 08:57:25;;;;;;;7.80;3.70;;;;;;;;;;5004050;28;20137;-91
2022/11/04 08:59:54;;;;;;;7.38;4.13;;;;;;;;;;5009481;28;20069;-91
2022/11/04 09:02:26;;;;;;;6.28;3.97;;;;;;;;;;5006004;28;20120;-91
2022/11/04 09:04:54;;;;;;;8.45;3.88;;;;;;;;;;4975301;28;20041;-91
2022/11/04 09:07:26;;;;;;;5.95;3.58;;;;;;;;;;4991767;28;20053;-91
2022/11/04 09:09:54;;;;;;;7.32;3.70;;;;;;;;;;5007602;28;20077;-90
2022/11/04 09:12:22;;;;;;;5.43;3.80;;;;;;;;;;5004009;28;20467;-91
2022/11/04 09:14:50;;;;;;;8.45;3.58;;;;;;;;;;4991119;28;20137;-91
2022/11/04 09:17:18;;;;;;;6.53;3.78;;;;;;;;;;5001047;28;20057;-91
2022/11/04 09:20:38;;;;;;;7.78;3.78;;;;;;;;;;4995073;28;20046;-91
2022/11/04 09:23:07;;;;;;;6.40;3.38;;;;;;;;;;5008587;28;20066;-91
2022/11/04 09:25:35;;;;;;;5.90;3.70;;;;;;;;;;4990839;28;20088;-91
2022/11/04 09:28:03;;;;;;;6.35;3.25;;;;;;;;;;5012555;28;20161;-91
2022/11/04 09:30:31;;;;;;;5.63;3.60;;;;;;;;;;4991906;28;20488;-91
2022/11/04 09:33:24;;;;;;;5.50;3.45;;;;;;;;;;5012112;28;20052;-91
2022/11/04 09:35:56;;;;;;;6.72;3.88;;;;;;;;;;4994446;28;20125;-91
2022/11/04 09:38:24;;;;;;;5.82;3.10;;;;;;;;;;5011844;28;20057;-91
2022/11/04 09:40:59;;;;;;;8.02;3.70;;;;;;;;;;5008683;28;20038;-91
2022/11/04 09:43:52;;;;;;;9.05;3.50;;;;;;;;;;5011189;28;20284;-91
2022/11/04 09:46:26;;;;;;;5.60;3.53;;;;;;;;;;4972179;28;20061;-91
2022/11/04 09:48:56;;;;;;;5.57;3.22;;;;;;;;;;5010900;28;20045;-91
2022/11/04 09:51:26;;;;;;;6.00;3.60;;;;;;;;;;5004619;28;20584;-89
2022/11/04 09:54:49;;;;;;;5.38;3.10;;;;;;;;;;5008466;28;20117;-89
2022/11/04 09:57:17;;;;;;;4.70;2.83;;;;;;;;;;4991911;28;20049;-90
2022/11/04 09:59:45;;;;;;;4.35;2.70;;;;;;;;;;5005133;28;20046;-90
2022/11/04 10:02:33;;;;;;;5.32;2.80;;;;;;;;;;5007908;28;20049;-90
2022/11/04 10:05:46;;;;;;;4.13;2.40;;;;;;;;;;5011209;28;20062;-90
2022/11/04 10:08:48;;;;;;;3.30;2.10;;;;;;;;;;5010176;28;20042;-90
2022/11/04 10:11:20;;;;;;;6.00;2.30;;;;;;;;;;4912916;29;20061;-89
2022/11/04 10:14:07;;;;;;;3.95;2.55;;;;;;;;;;4926168;29;20502;-90
2022/11/04 10:17:04;;;;;;;7.28;2.40;;;;;;;;;;4922734;29;20527;-90
2022/11/04 10:19:54;;;;;;;5.10;2.85;;;;;;;;;;4926054;29;20103;-90
2022/11/04 10:22:52;;;;;;;4.70;2.58;;;;;;;;;;4909546;29;20135;-90
2022/11/04 10:25:24;;;;;;;4.68;2.38;;;;;;;;;;4914368;29;20047;-90
2022/11/04 10:27:51;;;;;;;5.10;2.70;;;;;;;;;;4910386;29;20070;-90
2022/11/04 10:30:21;;;;;;;6.40;3.22;;;;;;;;;;4924560;29;20055;-90
2022/11/04 10:33:02;;;;;;;6.28;3.22;;;;;;;;;;4926788;29;20044;-92
2022/11/04 10:35:43;;;;;;;5.40;2.63;;;;;;;;;;4920812;29;20050;-91
2022/11/04 10:38:34;;;;;;;4.30;2.45;;;;;;;;;;4926477;29;20055;-91
2022/11/04 10:41:36;;;;;;;4.82;2.80;;;;;;;;;;4908093;29;20051;-91
2022/11/04 10:44:06;;;;;;;4.45;2.72;;;;;;;;;;4911123;29;20049;-91
2022/11/04 10:47:14;;;;;;;4.72;2.80;;;;;;;;;;4927355;28;20051;-91
2022/11/04 10:50:33;;;;;;;6.22;2.75;;;;;;;;;;5004230;28;20034;-91
2022/11/04 10:53:09;;;;;;;3.70;2.10;;;;;;;;;;5006294;28;20048;-90
2022/11/04 10:55:45;;;;;;;5.78;2.75;;;;;;;;;;5007130;28;20038;-90
2022/11/04 10:58:29;;;;;;;5.25;2.67;;;;;;;;;;5006407;28;20065;-91
2022/11/04 11:01:22;;;;;;;4.95;2.80;;;;;;;;;;5009339;28;20045;-91
2022/11/04 11:04:25;;;;;;;4.38;2.45;;;;;;;;;;4997052;28;20038;-91
2022/11/04 11:07:21;;;;;;;3.47;2.15;;;;;;;;;;4992983;28;20030;-91
2022/11/04 11:10:00;;;;;;;5.55;2.40;;;;;;;;;;4984431;28;20088;-90
2022/11/04 11:12:39;;;;;;;4.03;2.00;;;;;;;;;;4986195;28;20049;-91
2022/11/04 11:15:35;;;;;;;5.00;1.88;;;;;;;;;;5002225;28;20492;-91
2022/11/04 11:18:19;;;;;;;2.90;1.70;;;;;;;;;;5009014;28;20128;-91
2022/11/04 11:21:10;;;;;;;4.13;1.80;;;;;;;;;;4986608;28;20492;-90
2022/11/04 11:23:47;;;;;;;3.63;1.60;;;;;;;;;;5010001;28;20042;-91
2022/11/04 11:26:28;;;;;;;6.03;1.80;;;;;;;;;;5008389;28;20524;-91
2022/11/04 11:29:01;;;;;;;4.00;1.77;;;;;;;;;;4971977;28;20454;-91
2022/11/04 11:31:39;;;;;;;2.85;1.50;;;;;;;;;;4985587;28;20044;-91
2022/11/04 11:34:17;;;;;;;2.33;1.40;;;;;;;;;;5009999;28;20045;-91
2022/11/04 11:36:52;;;;;;;2.47;1.40;;;;;;;;;;5009029;28;20034;-90
2022/11/04 11:39:26;;;;;;;2.58;1.40;;;;;;;;;;5010566;28;20080;-91
2022/11/04 11:42:19;;;;;;;5.78;1.45;;;;;;;;;;5003540;28;20052;-91
2022/11/04 11:45:15;;;;;;;3.17;1.33;;;;;;;;;;5009893;28;20112;-91
2022/11/04 11:47:42;;;;;;;2.63;1.13;;;;;;;;;;5007669;28;20046;-91
2022/11/04 11:50:18;;;;;;;4.40;1.40;;;;;;;;;;5009533;28;20065;-91
2022/11/04 11:52:47;;;;;;;2.50;1.25;;;;;;;;;;4991707;28;20056;-91
2022/11/04 11:55:46;;;;;;;3.03;1.45;;;;;;;;;;5009893;28;20033;-91
2022/11/04 11:58:40;;;;;;;1.88;1.05;;;;;;;;;;5006879;28;20061;-91
2022/11/04 12:01:37;;;;;;;4.10;1.10;;;;;;;;;;5006790;28;20092;-91
2022/11/04 12:04:06;;;;;;;1.50;0.90;;;;;;;;;;4990920;28;20137;-91
2022/11/04 12:07:18;;;;;;;4.38;1.10;;;;;;;;;;5007713;28;20044;-91
2022/11/04 12:10:35;;;;;;;2.08;0.93;;;;;;;;;;4990650;28;20524;-91
2022/11/04 12:13:56;;;;;;;3.00;0.88;;;;;;;;;;5008711;28;20050;-91
2022/11/04 12:16:42;;;;;;;3.50;0.70;;;;;;;;;;5007173;28;20038;-91
2022/11/04 12:19:43;;;;;;;2.85;0.88;;;;;;;;;;5007459;28;20041;-91
2022/11/04 12:22:43;;;;;;;3.13;0.63;;;;;;;;;;4960397;28;20045;-92
2022/11/04 12:25:32;;;;;;;2.10;0.77;;;;;;;;;;4985933;28;20479;-91
2022/11/04 12:28:25;;;;;;;3.40;1.13;;;;;;;;;;5007354;28;20054;-91
2022/11/04 12:31:16;;;;;;;1.55;0.70;;;;;;;;;;5007288;28;20476;-91
2022/11/04 12:34:13;;;;;;;2.67;0.77;;;;;;;;;;4993175;28;20513;-91
2022/11/04 12:37:23;;;;;;;1.60;0.60;;;;;;;;;;4995166;28;20041;-91
2022/11/04 12:40:07;;;;;;;2.58;0.80;;;;;;;;;;4991239;28;20050;-91
2022/11/04 12:42:44;;;;;;;2.78;0.85;;;;;;;;;;5006665;28;20099;-91
2022/11/04 12:45:23;;;;;;;3.58;1.05;;;;;;;;;;5006964;28;20042;-92
2022/11/04 12:47:58;;;;;;;0.95;0.50;;;;;;;;;;4985089;28;20054;-91
2022/11/04 12:50:41;;;;;;;4.72;0.60;;;;;;;;;;5007029;28;20046;-91
2022/11/04 12:53:34;;;;;;;1.45;0.60;;;;;;;;;;5007300;28;20117;-91
2022/11/04 12:56:11;;;;;;;1.98;0.57;;;;;;;;;;5006790;28;20034;-91
2022/11/04 12:59:12;;;;;;;7.00;1.17;;;;;;;;;;5008592;28;20041;-91
2022/11/04 13:02:24;;;;;;;3.58;0.55;;;;;;;;;;4983501;28;20088;-91
2022/11/04 13:05:21;;;;;;;2.92;0.60;;;;;;;;;;5007422;28;20117;-92
2022/11/04 13:07:51;;;;;;;5.22;0.95;;;;;;;;;;5006936;28;20053;-90
2022/11/04 13:10:25;;;;;;;1.77;0.70;;;;;;;;;;4988252;28;20060;-91
2022/11/04 13:12:55;;;;;;;5.32;1.23;;;;;;;;;;5007100;28;20400;-91
2022/11/04 13:15:36;;;;;;;6.35;1.05;;;;;;;;;;5008093;28;20034;-91
2022/11/04 13:18:07;;;;;;;5.25;0.85;;;;;;;;;;4989019;28;20511;-91
2022/11/04 13:20:54;;;;;;;2.53;0.82;;;;;;;;;;5002902;28;20096;-90
2022/11/04 13:23:53;;;;;;;2.92;0.63;;;;;;;;;;4988875;28;20535;-92
2022/11/04 13:26:20;;;;;;;2.78;0.75;;;;;;;;;;5005490;28;20038;-94
2022/11/04 13:29:00;;;;;;;1.77;0.98;;;;;;;;;;5003845;28;20076;-94
2022/11/04 13:31:54;;;;;;;5.05;0.98;;;;;;;;;;4992749;28;20436;-94
2022/11/04 13:34:53;;;;;;;8.55;0.93;;;;;;;;;;4991829;28;20052;-93
2022/11/04 13:37:41;;;;;;;6.00;1.00;;;;;;;;;;5007526;28;20035;-93
2022/11/04 13:40:20;;;;;;;2.47;0.70;;;;;;;;;;4990298;28;20455;-93
2022/11/04 13:43:36;;;;;;;4.30;0.80;;;;;;;;;;5007713;28;20396;-93
2022/11/04 13:45:51;;;;;;;3.47;0.98;;;;;;;;;;5008281;28;20040;-92
2022/11/04 13:49:05;;;;;;;3.55;0.75;;;;;;;;;;4972727;28;20038;-93
2022/11/04 13:51:44;;;;;;;2.85;0.73;;;;;;;;;;4988170;28;20046;-92
2022/11/04 13:54:42;;;;;;;4.85;1.00;;;;;;;;;;5007132;28;20041;-92
2022/11/04 13:57:19;;;;;;;5.20;0.82;;;;;;;;;;4909567;29;20063;-92
2022/11/04 14:00:15;;;;;;;4.75;1.33;;;;;;;;;;4911568;29;20047;-92
2022/11/04 14:03:21;;;;;;;5.45;0.70;;;;;;;;;;4926477;29;20530;-92
2022/11/04 14:05:57;;;;;;;5.93;0.98;;;;;;;;;;4910885;29;20087;-92
2022/11/04 14:08:24;;;;;;;6.25;1.13;;;;;;;;;;4913218;29;20096;-93
2022/11/04 14:10:52;;;;;;;2.25;0.50;;;;;;;;;;4910381;29;20142;-92
2022/11/04 14:13:30;;;;;;;6.18;0.77;;;;;;;;;;4928734;29;20115;-92
2022/11/04 14:16:23;;;;;;;6.20;0.82;;;;;;;;;;4900141;29;20047;-92
2022/11/04 14:18:52;;;;;;;5.43;1.13;;;;;;;;;;4916450;29;20495;-92
2022/11/04 14:21:24;;;;;;;2.28;0.77;;;;;;;;;;4928532;29;20588;-92
2022/11/04 14:23:59;;;;;;;1.75;0.60;;;;;;;;;;4929850;29;20051;-91
2022/11/04 14:26:39;;;;;;;3.42;0.90;;;;;;;;;;4929370;29;20047;-92
2022/11/04 14:29:23;;;;;;;1.67;0.60;;;;;;;;;;4930588;29;20130;-92
2022/11/04 14:32:29;;;;;;;2.10;0.90;;;;;;;;;;4918539;29;20047;-92
2022/11/04 14:35:00;;;;;;;7.55;0.88;;;;;;;;;;4995141;28;20074;-92
2022/11/04 14:37:35;;;;;;;6.38;0.68;;;;;;;;;;5006342;28;20454;-92
2022/11/04 14:40:24;;;;;;;3.83;1.20;;;;;;;;;;4987200;28;20116;-93
2022/11/04 14:43:31;;;;;;;5.93;0.85;;;;;;;;;;4976350;28;20030;-93
2022/11/04 14:46:00;;;;;;;4.53;0.63;;;;;;;;;;5006215;28;20060;-92
2022/11/04 14:48:29;;;;;;;2.15;0.75;;;;;;;;;;4992457;28;20034;-92
2022/11/04 14:51:29;;;;;;;7.30;1.20;;;;;;;;;;5002979;28;20053;-92
2022/11/04 14:54:15;;;;;;;6.60;1.58;;;;;;;;;;4994933;28;20365;-93
2022/11/04 14:56:48;;;;;;;1.77;0.60;;;;;;;;;;5009414;28;20401;-93
2022/11/04 14:59:26;;;;;;;4.22;0.63;;;;;;;;;;4976773;28;20042;-93
2022/11/04 15:02:23;;;;;;;3.33;0.80;;;;;;;;;;5006217;28;20030;-93
2022/11/04 15:04:59;;;;;;;2.75;1.20;;;;;;;;;;5012481;28;20037;-93
2022/11/04 15:07:38;;;;;;;7.32;1.10;;;;;;;;;;4986079;28;20133;-93
2022/11/04 15:10:24;;;;;;;3.90;0.85;;;;;;;;;;5007667;28;20495;-92
2022/11/04 15:13:18;;;;;;;1.65;0.70;;;;;;;;;;4960807;28;20497;-92
2022/11/04 15:15:49;;;;;;;5.85;1.05;;;;;;;;;;5002044;28;20069;-92
2022/11/04 15:18:20;;;;;;;4.20;1.00;;;;;;;;;;5009589;28;20029;-92
2022/11/04 15:21:01;;;;;;;3.35;1.23;;;;;;;;;;4990103;28;20167;-92
2022/11/04 15:23:40;;;;;;;3.47;1.40;;;;;;;;;;4976052;28;20044;-91
2022/11/04 15:26:35;;;;;;;8.88;1.50;;;;;;;;;;5007897;28;20043;-92
2022/11/04 15:29:10;;;;;;;6.55;1.63;;;;;;;;;;4975191;28;20045;-93
2022/11/04 15:31:57;;;;;;;4.50;1.48;;;;;;;;;;4992870;28;20073;-92
2022/11/04 15:34:26;;;;;;;4.07;1.55;;;;;;;;;;4987221;28;20046;-92
2022/11/04 15:37:04;;;;;;;6.43;2.05;;;;;;;;;;4992877;28;20671;-93
2022/11/04 15:39:35;;;;;;;4.15;1.58;;;;;;;;;;4994370;28;20408;-93
2022/11/04 15:42:38;;;;;;;6.03;1.38;;;;;;;;;;4992979;28;20046;-92
2022/11/04 15:45:49;;;;;;;3.13;1.20;;;;;;;;;;4991957;28;20045;-92
2022/11/04 15:48:24;;;;;;;3.55;1.13;;;;;;;;;;4993589;28;20056;-93
2022/11/04 15:51:14;;;;;;;6.07;2.13;;;;;;;;;;4976273;28;20042;-92
2022/11/04 15:53:50;;;;;;;3.38;1.17;;;;;;;;;;4992482;28;20045;-93
2022/11/04 15:56:23;;;;;;;3.90;1.25;;;;;;;;;;5009908;28;20044;-93
2022/11/04 15:58:53;;;;;;;3.67;1.40;;;;;;;;;;5009473;28;20124;-92
2022/11/04 16:01:21;;;;;;;3.47;1.63;;;;;;;;;;4976165;28;20046;-93
2022/11/04 16:03:51;;;;;;;3.60;1.20;;;;;;;;;;5009074;28;20037;-92
2022/11/04 16:06:41;;;;;;;6.03;1.70;;;;;;;;;;4957526;28;20050;-92
2022/11/04 16:09:24;;;;;;;9.63;1.98;;;;;;;;;;4992008;28;20064;-93
2022/11/04 16:12:27;;;;;;;4.93;2.00;;;;;;;;;;4986318;28;20117;-93
2022/11/04 16:14:56;;;;;;;8.18;2.85;;;;;;;;;;4984565;28;20042;-92
2022/11/04 16:17:25;;;;;;;7.18;2.63;;;;;;;;;;5009773;28;20172;-93
2022/11/04 16:19:57;;;;;;;8.07;2.60;;;;;;;;;;4990840;28;20049;-92
2022/11/04 16:22:55;;;;;;;4.57;1.95;;;;;;;;;;5004574;28;20030;-92
2022/11/04 16:25:23;;;;;;;6.68;2.22;;;;;;;;;;5008082;28;20052;-93
2022/11/04 16:27:50;;;;;;;4.75;2.10;;;;;;;;;;4977268;28;20099;-92
2022/11/04 16:30:20;;;;;;;7.10;1.90;;;;;;;;;;5002791;28;20042;-92
2022/11/04 16:33:16;;;;;;;4.82;2.00;;;;;;;;;;4993600;28;20080;-92
2022/11/04 16:35:48;;;;;;;3.38;1.40;;;;;;;;;;4989686;28;20127;-90
2022/11/04 16:38:16;;;;;;;4.00;2.03;;;;;;;;;;4991436;28;20037;-93
2022/11/04 16:40:47;;;;;;;6.53;1.73;;;;;;;;;;5010449;28;20046;-92
2022/11/04 16:43:40;;;;;;;6.25;2.70;;;;;;;;;;5008920;28;20038;-91
2022/11/04 16:46:10;;;;;;;7.47;3.08;;;;;;;;;;5003323;28;20116;-92
2022/11/04 16:48:38;;;;;;;4.85;2.40;;;;;;;;;;4989036;28;20046;-91
2022/11/04 16:51:14;;;;;;;5.50;2.15;;;;;;;;;;5004136;28;20045;-91
2022/11/04 16:53:41;;;;;;;4.57;2.05;;;;;;;;;;5004474;28;20045;-91
2022/11/04 16:56:08;;;;;;;7.35;2.10;;;;;;;;;;5001085;28;20123;-92
2022/11/04 16:59:03;;;;;;;6.28;1.80;;;;;;;;;;5003944;28;20045;-92
2022/11/04 17:01:38;;;;;;;8.60;1.95;;;;;;;;;;4992524;28;20038;-91
2022/11/04 17:04:06;;;;;;;5.35;2.05;;;;;;;;;;5001830;28;20117;-91
2022/11/04 17:06:35;;;;;;;5.68;2.40;;;;;;;;;;5010006;28;20041;-95